Delphos, OH (45833)

6:40 AM EST on February 10, 2016 (GMT -0500)
2.3 MI. ESE Delphos | | Change Station
CLOSE
Current Station
Personal Weather Station
Location: Delphos, OH
Elevation: 778 ft
Nearby Weather Stations

Elev 778 ft 40.83 °N, 84.30 °W | Updated 11 minutes ago

Snow
Snow
16.0 °F
Feels Like 8 °F
N
5.3
Wind Variable Wind from WSW

Today
High -- | Low -- °F
--% Chance of Precip.
Yesterday
High -- | Low -- °F
Precip. -- in
Pressure 29.87 in
Visibility 1.2 miles
Clouds Overcast 1400 ft
Windchill 8 °F
Dew Point 12 °F
Humidity 84%
Rainfall 0.00 in
Snow Depth Not available.
7:38 AM 6:05 PM
Waxing Crescent, 5% visible
METAR KAOH 101053Z AUTO 26013KT 1 1/4SM -SN BR OVC014 M09/M11 A2983 RMK AO2 SLP115 P0000 T10891106
Pressure 29.87 in
Visibility 1.2 miles
Clouds Overcast 1400 ft
Windchill 8 °F
Dew Point 12 °F
Humidity 84%
Rainfall 0.00 in
Snow Depth Not available.
7:38 AM 6:05 PM
Waxing Crescent, 5% visible
METAR KAOH 101053Z AUTO 26013KT 1 1/4SM -SN BR OVC014 M09/M11 A2983 RMK AO2 SLP115 P0000 T10891106

10-Day Weather Forecast

Almanac

Astronomy

Feb. 10, 2016 Rise Set
Actual Time
Civil Twilight
Nautical Twilight
Astronomical Twilight
Moon
Length of Visible Light
Length of Day
Tomorrow will be .
, % of the Moon is Illuminated

Today's Extremes

State Highs State Lows

Community

WunderPhotos

Upload Photos

1,891,830 photos uploaded!

WunderBlog® & News

Nearby

Air Quality

  Air Quality AQ Index Pollutant
Not available.

Snow Depth

Station Depth Elevation

Earthquake Activity

City Distance Mag. Time & Date
Minimum magnitude displayed is 2.5.

Coastal Water Temperatures

Place Temperature

Stations

Nearby Weather Stations

Station Location Temp. Windchill Dew Point Humidity Wind Precip. Elev Updated Type
                   

Watches & Warnings

There are currently no watches in effect.